createdAt,value
2024-03-14T16:27:14.210Z,12.88
2024-03-14T16:29:41.517Z,12.70
2024-03-14T16:32:08.763Z,12.53
2024-03-14T16:36:25.678Z,12.32
2024-03-14T16:39:19.620Z,12.09
2024-03-14T16:42:08.032Z,11.85
2024-03-14T16:44:56.483Z,11.59
2024-03-14T16:47:45.262Z,11.36
2024-03-14T16:50:34.997Z,11.16
2024-03-14T16:53:23.031Z,10.97
2024-03-14T16:56:12.396Z,10.80
2024-03-14T16:59:00.020Z,10.63
2024-03-14T17:01:47.986Z,10.45
2024-03-14T17:04:35.793Z,10.25
2024-03-14T17:07:25.463Z,10.07
2024-03-14T17:10:13.317Z,9.88
2024-03-14T17:13:02.958Z,9.70
2024-03-14T17:15:51.672Z,9.54
2024-03-14T17:18:40.040Z,9.38
2024-03-14T17:21:29.717Z,9.23
2024-03-14T17:24:19.470Z,9.09
2024-03-14T17:27:13.254Z,8.97
2024-03-14T17:30:06.971Z,8.84
2024-03-14T17:32:56.586Z,8.75
2024-03-14T17:35:44.900Z,8.67
2024-03-14T17:38:33.967Z,8.58
2024-03-14T17:41:21.998Z,8.49
2024-03-14T17:44:10.048Z,8.42
2024-03-14T17:46:59.983Z,8.35
2024-03-14T17:49:48.075Z,8.29
2024-03-14T17:52:35.808Z,8.25
2024-03-14T17:55:24.902Z,8.19
2024-03-14T17:58:15.374Z,8.12
2024-03-14T18:01:05.636Z,8.07
2024-03-14T18:03:55.516Z,8.05
2024-03-14T18:06:45.807Z,8.02
2024-03-14T18:09:34.955Z,7.95
2024-03-14T18:12:23.594Z,7.85
2024-03-14T18:15:14.171Z,7.75
2024-03-14T18:18:03.935Z,7.72
2024-03-14T18:20:52.719Z,7.72
2024-03-14T18:23:41.440Z,7.66
2024-03-14T18:26:30.302Z,7.57
2024-03-14T18:29:20.604Z,7.49
2024-03-14T18:32:13.677Z,7.43
2024-03-14T18:35:04.224Z,7.36
2024-03-14T18:37:53.243Z,7.29
2024-03-14T18:40:42.391Z,7.23
2024-03-14T18:43:33.052Z,7.17
2024-03-14T18:46:23.252Z,7.09
2024-03-14T18:49:17.464Z,6.98
2024-03-14T18:52:11.235Z,6.90
2024-03-14T18:55:00.274Z,6.86
2024-03-14T18:57:50.492Z,6.83
2024-03-14T19:00:39.039Z,6.85
2024-03-14T19:03:27.620Z,6.89
2024-03-14T19:06:20.391Z,6.91
2024-03-14T19:09:11.981Z,6.92
2024-03-14T19:12:00.532Z,6.97
2024-03-14T19:14:50.098Z,7.02
2024-03-14T19:17:39.483Z,7.08
2024-03-14T19:20:29.548Z,7.15
2024-03-14T19:23:18.584Z,7.22
2024-03-14T19:26:07.792Z,7.29
2024-03-14T19:28:57.574Z,7.34
2024-03-14T19:31:46.545Z,7.39
2024-03-14T19:34:35.836Z,7.42
2024-03-14T19:37:25.821Z,7.42
2024-03-14T19:40:15.721Z,7.38
2024-03-14T19:43:05.220Z,7.34
2024-03-14T19:45:54.406Z,7.29
2024-03-14T19:48:45.965Z,7.24
2024-03-14T19:51:35.422Z,7.19
2024-03-14T19:54:24.267Z,7.15
2024-03-14T19:57:13.576Z,7.10
2024-03-14T20:00:03.271Z,7.06
2024-03-14T20:03:03.064Z,7.02
2024-03-14T20:05:52.685Z,6.98
2024-03-14T20:08:41.643Z,6.92
2024-03-14T20:11:30.461Z,6.89
2024-03-14T20:14:19.848Z,6.84
2024-03-14T20:17:08.313Z,6.80
2024-03-14T20:19:57.472Z,6.73
2024-03-14T20:22:45.273Z,6.68
2024-03-14T20:25:33.592Z,6.67
2024-03-14T20:28:21.550Z,6.67
2024-03-14T20:31:09.888Z,6.69
2024-03-14T20:33:58.693Z,6.68
2024-03-14T20:36:47.660Z,6.65
2024-03-14T20:39:42.867Z,6.61
2024-03-14T20:42:33.574Z,6.57
2024-03-14T20:45:24.116Z,6.53
2024-03-14T20:48:13.442Z,6.47
2024-03-14T20:51:02.817Z,6.41
2024-03-14T20:53:52.495Z,6.37
2024-03-14T20:56:46.892Z,6.32
2024-03-14T20:59:34.952Z,6.30
2024-03-14T21:02:25.958Z,6.29
2024-03-14T21:05:15.531Z,6.28
2024-03-14T21:08:11.638Z,6.27
2024-03-14T21:11:00.927Z,6.24
2024-03-14T21:13:49.295Z,6.20
2024-03-14T21:16:37.339Z,6.16
2024-03-14T21:19:26.079Z,6.13
2024-03-14T21:22:15.049Z,6.12
2024-03-14T21:25:07.801Z,6.12
2024-03-14T21:28:02.920Z,6.10
2024-03-14T21:30:53.170Z,6.08
2024-03-14T21:33:42.395Z,6.06
2024-03-14T21:36:31.640Z,6.02
2024-03-14T21:39:20.210Z,5.97
2024-03-14T21:42:08.606Z,5.93
2024-03-14T21:44:57.374Z,5.88
2024-03-14T21:47:50.629Z,5.86
2024-03-14T21:50:39.707Z,5.84
2024-03-14T21:53:30.606Z,5.81
2024-03-14T21:56:18.534Z,5.79
2024-03-14T21:59:07.837Z,5.77
2024-03-14T22:01:56.718Z,5.74
2024-03-14T22:04:45.844Z,5.69
2024-03-14T22:07:34.832Z,5.62
2024-03-14T22:10:23.458Z,5.54
2024-03-14T22:13:12.462Z,5.47
2024-03-14T22:16:01.138Z,5.42
2024-03-14T22:18:50.182Z,5.40
2024-03-14T22:21:41.437Z,5.40
2024-03-14T22:24:30.520Z,5.39
2024-03-14T22:27:18.580Z,5.38
2024-03-14T22:30:09.379Z,5.37
2024-03-14T22:32:58.166Z,5.33
2024-03-14T22:35:46.993Z,5.30
2024-03-14T22:38:35.710Z,5.28
2024-03-14T22:41:23.754Z,5.25
2024-03-14T22:44:13.712Z,5.24
2024-03-14T22:47:02.400Z,5.24
2024-03-14T22:49:50.835Z,5.23
2024-03-14T22:52:40.109Z,5.22
2024-03-14T22:55:28.660Z,5.19
2024-03-14T22:58:17.506Z,5.17
2024-03-14T23:01:06.511Z,5.14
2024-03-14T23:03:55.335Z,5.09
2024-03-14T23:06:43.573Z,5.02
2024-03-14T23:09:31.769Z,4.97
2024-03-14T23:12:20.401Z,4.92
2024-03-14T23:15:08.733Z,4.88
2024-03-14T23:17:57.398Z,4.89
2024-03-14T23:20:45.907Z,4.90
2024-03-14T23:23:33.843Z,4.89
2024-03-14T23:26:28.819Z,4.89
2024-03-14T23:29:23.240Z,4.88
2024-03-14T23:32:11.537Z,4.88
2024-03-14T23:35:00.452Z,4.86
2024-03-14T23:37:48.974Z,4.83
2024-03-14T23:40:36.731Z,4.78
2024-03-14T23:43:25.259Z,4.71
2024-03-14T23:46:14.848Z,4.61
2024-03-14T23:49:02.939Z,4.52
2024-03-14T23:51:51.005Z,4.47
2024-03-14T23:54:38.799Z,4.42
2024-03-14T23:57:27.430Z,4.38
